Airport View

Enter AWOS ICAO identifier for current METAR.

ex. KFNL

KTLH 210053Z 06004KT 10SM CLR 27/17 A3014 RMK AO2 SLP205 T02670172

21 Sep 2019 01:17

Phone: 850-576-3665

Other Area AWOS: K2J9 - KBGE - KTVI - K40J

TAF KTLH 202320Z 2100/2124 10009KT P6SM FEW070 SCT250 FM211400 09010G15KT P6SM SCT050